createdAt,value
2018-12-19T00:00:34.645Z,101997.18
2018-12-19T00:03:08.552Z,101988.77
2018-12-19T00:05:43.879Z,101987.50
2018-12-19T00:08:21.643Z,101987.16
2018-12-19T00:10:52.377Z,101990.02
2018-12-19T00:13:22.911Z,101981.45
2018-12-19T00:15:53.389Z,101979.92
2018-12-19T00:18:23.919Z,101984.84
2018-12-19T00:20:54.419Z,101981.39
2018-12-19T00:23:25.015Z,101979.98
2018-12-19T00:25:55.611Z,101978.00
2018-12-19T00:28:28.147Z,101973.25
2018-12-19T00:31:00.731Z,101979.24
2018-12-19T00:33:33.396Z,101972.56
2018-12-19T00:36:06.311Z,101972.31
2018-12-19T00:38:38.366Z,101976.61
2018-12-19T00:41:08.918Z,101978.03
2018-12-19T00:43:39.710Z,101981.63
2018-12-19T00:46:10.210Z,101976.84
2018-12-19T00:48:40.746Z,101978.55
2018-12-19T00:51:11.306Z,101975.72
2018-12-19T00:53:41.861Z,101969.78
2018-12-19T00:56:12.362Z,101981.28
2018-12-19T00:58:42.927Z,101980.55
2018-12-19T01:01:13.386Z,101984.78
2018-12-19T01:03:43.946Z,101978.59
2018-12-19T01:06:14.500Z,101985.73
2018-12-19T01:08:45.016Z,101983.15
2018-12-19T01:11:15.668Z,101984.06
2018-12-19T01:13:47.431Z,101975.67
2018-12-19T01:16:17.994Z,101970.53
2018-12-19T01:18:48.552Z,101977.35
2018-12-19T01:21:19.206Z,101971.84
2018-12-19T01:23:49.693Z,101968.08
2018-12-19T01:26:20.242Z,101961.45
2018-12-19T01:28:50.886Z,101957.98
2018-12-19T01:31:21.470Z,101956.97
2018-12-19T01:33:52.132Z,101947.17
2018-12-19T01:36:22.674Z,101941.44
2018-12-19T01:38:53.282Z,101933.22
2018-12-19T01:41:23.799Z,101930.62
2018-12-19T01:43:54.439Z,101919.54
2018-12-19T01:46:25.006Z,101911.55
2018-12-19T01:48:55.616Z,101904.83
2018-12-19T01:51:26.289Z,101897.23
2018-12-19T01:53:56.803Z,101901.24
2018-12-19T01:56:27.416Z,101902.26
2018-12-19T01:58:57.954Z,101902.51
2018-12-19T02:01:28.481Z,101897.41
2018-12-19T02:03:59.095Z,101891.45
2018-12-19T02:06:29.704Z,101890.86
2018-12-19T02:09:00.237Z,101887.02
2018-12-19T02:11:30.837Z,101882.66
2018-12-19T02:14:01.407Z,101884.69
2018-12-19T02:16:32.035Z,101886.25
2018-12-19T02:19:02.601Z,101878.12
2018-12-19T02:21:33.695Z,101878.01
2018-12-19T02:24:04.346Z,101880.70
2018-12-19T02:26:35.061Z,101869.52
2018-12-19T02:29:05.734Z,101867.94
2018-12-19T02:31:36.335Z,101865.16
2018-12-19T02:34:07.081Z,101864.61
2018-12-19T02:36:37.953Z,101861.13
2018-12-19T02:39:09.251Z,101859.00
2018-12-19T02:41:39.893Z,101863.03
2018-12-19T02:44:10.517Z,101867.95
2018-12-19T02:46:41.041Z,101872.09
2018-12-19T02:49:11.602Z,101879.09
2018-12-19T02:51:42.116Z,101887.39
2018-12-19T02:54:12.723Z,101881.17
2018-12-19T02:56:43.203Z,101889.83
2018-12-19T02:59:13.877Z,101892.41
2018-12-19T03:01:44.390Z,101890.89
2018-12-19T03:04:14.945Z,101892.19
2018-12-19T03:06:45.487Z,101893.86
2018-12-19T03:09:16.069Z,101894.77
2018-12-19T03:11:46.640Z,101897.74
2018-12-19T03:14:17.190Z,101895.40
2018-12-19T03:16:47.715Z,101893.36
2018-12-19T03:19:18.283Z,101894.63
2018-12-19T03:21:48.837Z,101893.85
2018-12-19T03:24:19.437Z,101885.62
2018-12-19T03:26:50.028Z,101891.29
2018-12-19T03:29:20.651Z,101890.64
2018-12-19T03:31:51.231Z,101877.10
2018-12-19T03:34:22.953Z,101883.19
2018-12-19T03:36:53.507Z,101879.71
2018-12-19T03:39:24.085Z,101887.83
2018-12-19T03:41:54.656Z,101895.70
2018-12-19T03:44:25.278Z,101889.76
2018-12-19T03:46:55.924Z,101895.69
2018-12-19T03:49:27.027Z,101889.79
2018-12-19T03:51:57.609Z,101881.77
2018-12-19T03:54:28.746Z,101884.48
2018-12-19T03:56:59.957Z,101885.90
2018-12-19T03:59:30.516Z,101885.39
2018-12-19T04:02:01.102Z,101878.45
2018-12-19T04:04:31.689Z,101883.08
2018-12-19T04:07:02.461Z,101881.02
2018-12-19T04:09:33.046Z,101881.41
2018-12-19T04:12:03.687Z,101870.19
2018-12-19T04:14:34.399Z,101868.13
2018-12-19T04:17:05.348Z,101865.77
2018-12-19T04:19:35.882Z,101860.62
2018-12-19T04:22:08.529Z,101862.05
2018-12-19T04:24:39.082Z,101866.30
2018-12-19T04:27:09.626Z,101869.16
2018-12-19T04:29:40.690Z,101867.59
2018-12-19T04:32:11.466Z,101868.52
2018-12-19T04:34:42.111Z,101867.61
2018-12-19T04:37:12.657Z,101868.76
2018-12-19T04:39:43.209Z,101869.14
2018-12-19T04:42:13.815Z,101866.31
2018-12-19T04:44:44.431Z,101867.86
2018-12-19T04:47:14.921Z,101870.54
2018-12-19T04:49:45.447Z,101862.69
2018-12-19T04:52:16.059Z,101855.48
2018-12-19T04:54:46.631Z,101851.36
2018-12-19T04:57:17.213Z,101844.13
2018-12-19T04:59:47.963Z,101850.04
2018-12-19T05:02:18.553Z,101848.37
2018-12-19T05:04:49.194Z,101847.09
2018-12-19T05:07:21.283Z,101850.83
2018-12-19T05:09:52.060Z,101840.01
2018-12-19T05:12:22.622Z,101842.58
2018-12-19T05:14:53.391Z,101837.69
2018-12-19T05:17:24.024Z,101834.70
2018-12-19T05:19:55.024Z,101851.36
2018-12-19T05:22:25.650Z,101843.86
2018-12-19T05:24:56.285Z,101839.48
2018-12-19T05:27:27.878Z,101833.31
2018-12-19T05:29:58.542Z,101833.05
2018-12-19T05:32:29.052Z,101839.86
2018-12-19T05:34:59.698Z,101833.80
2018-12-19T05:37:30.278Z,101833.03
2018-12-19T05:40:00.903Z,101833.55
2018-12-19T05:42:31.500Z,101845.42
2018-12-19T05:45:02.107Z,101839.72
2018-12-19T05:47:33.094Z,101836.64
2018-12-19T05:50:04.279Z,101829.16
2018-12-19T05:52:35.512Z,101834.59
2018-12-19T05:55:06.900Z,101833.33
2018-12-19T05:57:37.706Z,101830.09
2018-12-19T06:00:09.176Z,101828.78
2018-12-19T06:02:39.720Z,101825.95
2018-12-19T06:05:10.302Z,101828.41
2018-12-19T06:07:40.980Z,101822.70
2018-12-19T06:10:11.680Z,101819.63
2018-12-19T06:12:42.368Z,101814.20
2018-12-19T06:15:17.668Z,101807.02
2018-12-19T06:17:48.738Z,101809.60
2018-12-19T06:20:19.393Z,101813.86
2018-12-19T06:22:50.098Z,101809.87
2018-12-19T06:25:20.744Z,101808.57
2018-12-19T06:27:51.447Z,101813.48
2018-12-19T06:30:22.725Z,101812.69
2018-12-19T06:32:53.606Z,101809.35
2018-12-19T06:35:24.414Z,101805.73
2018-12-19T06:37:59.856Z,101813.73
2018-12-19T06:40:34.297Z,101800.98
2018-12-19T06:43:05.127Z,101800.45
2018-12-19T06:45:36.020Z,101792.73
2018-12-19T06:48:06.674Z,101800.98
2018-12-19T06:50:37.272Z,101801.09
2018-12-19T06:53:08.234Z,101789.89
2018-12-19T06:55:38.988Z,101782.03
2018-12-19T06:58:09.598Z,101778.56
2018-12-19T07:00:40.130Z,101772.75
2018-12-19T07:03:10.901Z,101770.42
2018-12-19T07:05:41.581Z,101773.67
2018-12-19T07:08:12.553Z,101783.06
2018-12-19T07:10:43.792Z,101786.41
2018-12-19T07:13:14.327Z,101775.62
2018-12-19T07:15:44.932Z,101778.67
2018-12-19T07:18:16.580Z,101779.18
2018-12-19T07:20:47.225Z,101781.63
2018-12-19T07:23:17.854Z,101776.58
2018-12-19T07:25:48.490Z,101772.48
2018-12-19T07:28:19.094Z,101771.21
2018-12-19T07:30:49.652Z,101759.34
2018-12-19T07:33:20.175Z,101757.66
2018-12-19T07:35:50.905Z,101757.50
2018-12-19T07:38:21.509Z,101759.34
2018-12-19T07:40:52.063Z,101755.98
2018-12-19T07:43:22.573Z,101755.58
2018-12-19T07:45:53.426Z,101755.20
2018-12-19T07:48:24.156Z,101756.23
2018-12-19T07:50:54.687Z,101747.17
2018-12-19T07:53:25.243Z,101746.55
2018-12-19T07:55:56.057Z,101745.00
2018-12-19T07:58:26.617Z,101751.30
2018-12-19T08:00:57.189Z,101744.33
2018-12-19T08:03:27.746Z,101746.11
2018-12-19T08:05:58.308Z,101744.94
2018-12-19T08:08:28.882Z,101750.95
2018-12-19T08:10:59.527Z,101752.92
2018-12-19T08:13:30.057Z,101754.84
2018-12-19T08:16:00.731Z,101755.69
2018-12-19T08:18:31.339Z,101748.25
2018-12-19T08:21:01.844Z,101747.97
2018-12-19T08:23:32.489Z,101742.81
2018-12-19T08:26:02.977Z,101744.31
2018-12-19T08:28:33.569Z,101746.05
2018-12-19T08:31:04.236Z,101748.87
2018-12-19T08:33:34.865Z,101750.81
2018-12-19T08:36:05.459Z,101745.17
2018-12-19T08:38:35.990Z,101742.83
2018-12-19T08:41:06.528Z,101744.94
2018-12-19T08:43:37.302Z,101753.88
2018-12-19T08:46:08.970Z,101741.30
2018-12-19T08:48:40.330Z,101740.47
2018-12-19T08:51:10.902Z,101742.63
2018-12-19T08:53:41.527Z,101742.30
2018-12-19T08:56:12.459Z,101731.59
2018-12-19T08:58:42.952Z,101726.22
2018-12-19T09:01:13.438Z,101721.02
2018-12-19T09:03:43.943Z,101720.41
2018-12-19T09:06:14.510Z,101720.83
2018-12-19T09:08:45.056Z,101716.16
2018-12-19T09:11:15.645Z,101722.03
2018-12-19T09:13:46.331Z,101720.44
2018-12-19T09:16:16.914Z,101720.95
2018-12-19T09:18:47.434Z,101725.14
2018-12-19T09:21:19.740Z,101719.91
2018-12-19T09:23:50.335Z,101724.16
2018-12-19T09:26:21.943Z,101724.70
2018-12-19T09:28:52.406Z,101718.81
2018-12-19T09:31:23.423Z,101720.36
2018-12-19T09:33:54.039Z,101712.36
2018-12-19T09:36:24.934Z,101712.48
2018-12-19T09:38:55.678Z,101702.17
2018-12-19T09:41:26.475Z,101703.70
2018-12-19T09:43:56.977Z,101695.08
2018-12-19T09:46:27.450Z,101684.97
2018-12-19T09:48:57.934Z,101685.47
2018-12-19T09:51:29.045Z,101686.89
2018-12-19T09:53:59.572Z,101681.56
2018-12-19T09:56:30.363Z,101668.61
2018-12-19T09:59:00.865Z,101662.53
2018-12-19T10:01:31.417Z,101667.20
2018-12-19T10:04:01.992Z,101656.66
2018-12-19T10:06:33.790Z,101657.13
2018-12-19T10:09:14.879Z,101651.49
2018-12-19T10:11:44.007Z,101650.32
2018-12-19T10:14:14.618Z,101645.70
2018-12-19T10:16:45.182Z,101637.71
2018-12-19T10:19:15.672Z,101638.19
2018-12-19T10:21:47.404Z,101623.83
2018-12-19T10:24:18.106Z,101614.89
2018-12-19T10:26:48.606Z,101613.88
2018-12-19T10:29:19.299Z,101613.20
2018-12-19T10:31:49.787Z,101611.69
2018-12-19T10:34:21.427Z,101603.19
2018-12-19T10:36:52.124Z,101601.02
2018-12-19T10:39:23.226Z,101598.38
2018-12-19T10:41:53.712Z,101602.55
2018-12-19T10:44:24.690Z,101591.21
2018-12-19T10:46:58.095Z,101590.49
2018-12-19T10:49:28.616Z,101595.27
2018-12-19T10:51:59.106Z,101596.08
2018-12-19T10:54:29.622Z,101588.63
2018-12-19T10:57:00.110Z,101592.96
2018-12-19T10:59:30.593Z,101590.20
2018-12-19T11:02:01.145Z,101582.80
2018-12-19T11:04:31.912Z,101577.30
2018-12-19T11:07:02.461Z,101577.80
2018-12-19T11:09:33.233Z,101581.58
2018-12-19T11:12:03.904Z,101578.98
2018-12-19T11:14:34.509Z,101569.86
2018-12-19T11:17:12.019Z,101571.96
2018-12-19T11:19:42.510Z,101568.75
2018-12-19T11:22:13.110Z,101567.73
2018-12-19T11:24:43.589Z,101565.58
2018-12-19T11:27:14.080Z,101560.88
2018-12-19T11:29:45.117Z,101556.70
2018-12-19T11:32:15.586Z,101556.20
2018-12-19T11:34:46.081Z,101547.77
2018-12-19T11:37:16.730Z,101546.25
2018-12-19T11:39:47.204Z,101545.85
2018-12-19T11:42:17.718Z,101549.83
2018-12-19T11:44:48.167Z,101548.10
2018-12-19T11:47:18.766Z,101542.77
2018-12-19T11:49:49.419Z,101530.64
2018-12-19T11:52:20.351Z,101536.55
2018-12-19T11:54:52.252Z,101534.02
2018-12-19T11:57:22.834Z,101533.62
2018-12-19T11:59:53.490Z,101525.08
2018-12-19T12:02:24.229Z,101525.08
2018-12-19T12:04:54.978Z,101531.77
2018-12-19T12:07:27.731Z,101525.63
2018-12-19T12:09:58.394Z,101524.77
2018-12-19T12:12:29.050Z,101528.09
2018-12-19T12:14:59.717Z,101521.16
2018-12-19T12:17:30.384Z,101504.51
2018-12-19T12:20:02.156Z,101506.35
2018-12-19T12:22:32.658Z,101501.41
2018-12-19T12:25:03.308Z,101493.45
2018-12-19T12:27:33.958Z,101495.66
2018-12-19T12:30:04.636Z,101495.34
2018-12-19T12:32:35.545Z,101493.29
2018-12-19T12:35:07.543Z,101486.45
2018-12-19T12:37:38.183Z,101483.97
2018-12-19T12:40:09.869Z,101471.64
2018-12-19T12:42:40.552Z,101470.51
2018-12-19T12:45:11.249Z,101469.12
2018-12-19T12:47:42.474Z,101471.95
2018-12-19T12:50:13.143Z,101469.67
2018-12-19T12:52:43.671Z,101466.90
2018-12-19T12:55:14.276Z,101460.91
2018-12-19T12:57:45.721Z,101453.66
2018-12-19T13:00:16.678Z,101471.92
2018-12-19T13:02:47.207Z,101475.62
2018-12-19T13:05:17.797Z,101469.76
2018-12-19T13:07:48.531Z,101457.39
2018-12-19T13:10:19.200Z,101458.33
2018-12-19T13:12:49.801Z,101456.25
2018-12-19T13:15:53.815Z,101457.24
2018-12-19T13:21:26.340Z,101459.38
2018-12-19T13:23:58.709Z,101456.01
2018-12-19T13:26:30.780Z,101464.25
2018-12-19T13:29:18.815Z,101455.41
2018-12-19T13:31:50.856Z,101459.67
2018-12-19T13:34:22.446Z,101455.19
2018-12-19T13:36:53.969Z,101451.10
2018-12-19T13:39:25.098Z,101458.98
2018-12-19T13:41:56.982Z,101453.52
2018-12-19T13:44:27.635Z,101451.70
2018-12-19T13:46:58.905Z,101453.78
2018-12-19T13:49:30.126Z,101455.77
2018-12-19T13:52:00.725Z,101453.69
2018-12-19T13:54:31.339Z,101454.25
2018-12-19T13:57:02.066Z,101448.99
2018-12-19T13:59:32.737Z,101450.89
2018-12-19T14:02:03.493Z,101459.94
2018-12-19T14:04:34.309Z,101457.75
2018-12-19T14:07:06.266Z,101455.06
2018-12-19T14:09:37.034Z,101451.58
2018-12-19T14:12:12.263Z,101447.31
2018-12-19T14:14:40.261Z,101445.41
2018-12-19T14:17:10.861Z,101443.64
2018-12-19T14:19:41.425Z,101442.02
2018-12-19T14:22:12.072Z,101447.58
2018-12-19T14:24:42.677Z,101445.80
2018-12-19T14:27:13.276Z,101446.41
2018-12-19T14:29:43.883Z,101441.83
2018-12-19T14:32:14.525Z,101442.44
2018-12-19T14:34:45.144Z,101436.66
2018-12-19T14:37:15.741Z,101443.91
2018-12-19T14:39:46.393Z,101439.81
2018-12-19T14:42:19.191Z,101427.00
2018-12-19T14:44:49.656Z,101427.97
2018-12-19T14:47:20.195Z,101430.50
2018-12-19T14:49:53.220Z,101433.77
2018-12-19T14:52:24.532Z,101430.37
2018-12-19T14:54:55.518Z,101431.19
2018-12-19T14:57:27.157Z,101438.31
2018-12-19T15:02:56.611Z,101438.05
2018-12-19T15:05:27.178Z,101435.45
2018-12-19T15:07:58.003Z,101430.85
2018-12-19T15:10:28.720Z,101432.36
2018-12-19T15:12:59.423Z,101434.42
2018-12-19T15:15:33.925Z,101430.28
2018-12-19T15:18:09.342Z,101425.38
2018-12-19T15:20:41.208Z,101420.93
2018-12-19T15:23:12.888Z,101415.34
2018-12-19T15:25:43.529Z,101420.84
2018-12-19T15:28:14.534Z,101426.10
2018-12-19T15:30:45.204Z,101421.45
2018-12-19T15:33:15.814Z,101425.20
2018-12-19T15:35:46.330Z,101418.26
2018-12-19T15:38:16.898Z,101420.06
2018-12-19T15:40:47.537Z,101428.27
2018-12-19T15:43:18.150Z,101425.59
2018-12-19T15:45:48.704Z,101417.87
2018-12-19T15:48:19.360Z,101422.14
2018-12-19T15:50:50.066Z,101428.18
2018-12-19T15:53:21.652Z,101422.14
2018-12-19T15:55:52.254Z,101421.14
2018-12-19T15:58:23.030Z,101412.70
2018-12-19T16:00:53.621Z,101412.39
2018-12-19T16:03:24.144Z,101409.81
2018-12-19T16:06:07.078Z,101400.24
2018-12-19T16:08:37.692Z,101397.27
2018-12-19T16:11:08.180Z,101397.27
2018-12-19T16:13:38.759Z,101399.25
2018-12-19T16:16:09.466Z,101397.56
2018-12-19T16:18:40.037Z,101401.02
2018-12-19T16:21:10.557Z,101393.77
2018-12-19T16:23:41.698Z,101394.55
2018-12-19T16:26:12.353Z,101402.10
2018-12-19T16:28:43.019Z,101396.24
2018-12-19T16:31:13.695Z,101403.57
2018-12-19T16:33:44.801Z,101399.87
2018-12-19T16:36:15.345Z,101398.27
2018-12-19T16:38:45.887Z,101400.00
2018-12-19T16:41:16.460Z,101401.72
2018-12-19T16:43:47.056Z,101401.72
2018-12-19T16:46:18.352Z,101402.23
2018-12-19T16:48:48.860Z,101400.38
2018-12-19T16:51:19.726Z,101403.83
2018-12-19T16:53:50.371Z,101396.67
2018-12-19T16:56:20.908Z,101400.33
2018-12-19T16:58:51.596Z,101407.00
2018-12-19T17:01:22.162Z,101397.23
2018-12-19T17:03:52.690Z,101396.57
2018-12-19T17:06:23.262Z,101397.16
2018-12-19T17:08:53.766Z,101392.44
2018-12-19T17:11:24.437Z,101388.69
2018-12-19T17:13:55.208Z,101376.11
2018-12-19T17:16:26.511Z,101378.09
2018-12-19T17:18:56.966Z,101385.03
2018-12-19T17:21:27.480Z,101384.20
2018-12-19T17:23:58.030Z,101391.78
2018-12-19T17:26:28.486Z,101370.73
2018-12-19T17:28:59.067Z,101373.31
2018-12-19T17:31:29.506Z,101374.09
2018-12-19T17:34:00.209Z,101376.66
2018-12-19T17:36:31.745Z,101368.08
2018-12-19T17:39:02.410Z,101378.80
2018-12-19T17:41:34.972Z,101368.70
2018-12-19T17:44:05.529Z,101366.08
2018-12-19T17:46:36.186Z,101362.46
2018-12-19T17:49:06.723Z,101362.84
2018-12-19T17:51:37.343Z,101352.72
2018-12-19T17:54:07.874Z,101349.17
2018-12-19T17:56:38.403Z,101353.11
2018-12-19T17:59:09.013Z,101357.16
2018-12-19T18:01:39.682Z,101358.84
2018-12-19T18:04:26.701Z,101351.73
2018-12-19T18:06:57.350Z,101351.91
2018-12-19T18:09:29.409Z,101348.86
2018-12-19T18:11:59.901Z,101352.00
2018-12-19T18:14:30.439Z,101347.09
2018-12-19T18:17:00.904Z,101351.91
2018-12-19T18:19:31.449Z,101343.00
2018-12-19T18:22:02.070Z,101343.69
2018-12-19T18:24:32.704Z,101344.91
2018-12-19T18:27:03.234Z,101342.05
2018-12-19T18:29:33.807Z,101346.19
2018-12-19T18:32:04.356Z,101348.31
2018-12-19T18:34:34.901Z,101341.93
2018-12-19T18:37:05.469Z,101335.59
2018-12-19T18:39:36.009Z,101335.95
2018-12-19T18:42:06.678Z,101337.75
2018-12-19T18:44:37.214Z,101342.14
2018-12-19T18:47:07.722Z,101335.08
2018-12-19T18:49:38.189Z,101331.85
2018-12-19T18:52:10.436Z,101338.53
2018-12-19T18:54:40.933Z,101335.95
2018-12-19T18:57:11.527Z,101339.42
2018-12-19T18:59:42.217Z,101343.39
2018-12-19T19:02:13.139Z,101334.73
2018-12-19T19:04:43.607Z,101338.61
2018-12-19T19:07:14.165Z,101332.50
2018-12-19T19:12:50.425Z,101331.13
2018-12-19T19:15:20.938Z,101330.60
2018-12-19T19:17:51.425Z,101331.20
2018-12-19T19:20:22.006Z,101335.59
2018-12-19T19:22:52.614Z,101332.80
2018-12-19T19:25:23.754Z,101327.20
2018-12-19T19:27:54.218Z,101333.80
2018-12-19T19:30:24.658Z,101331.81
2018-12-19T19:32:55.228Z,101327.89
2018-12-19T19:35:25.672Z,101326.77
2018-12-19T19:37:56.215Z,101324.05
2018-12-19T19:40:26.706Z,101320.44
2018-12-19T19:42:57.365Z,101318.67
2018-12-19T19:45:27.911Z,101320.52
2018-12-19T19:47:58.459Z,101310.92
2018-12-19T19:50:29.023Z,101318.89
2018-12-19T19:52:59.606Z,101313.55
2018-12-19T19:55:30.268Z,101321.52
2018-12-19T19:58:02.824Z,101327.80
2018-12-19T20:00:33.789Z,101322.94
2018-12-19T20:03:04.461Z,101323.11
2018-12-19T20:05:35.707Z,101327.71
2018-12-19T20:08:06.265Z,101322.03
2018-12-19T20:10:36.815Z,101315.14
2018-12-19T20:13:08.818Z,101309.42
2018-12-19T20:15:40.374Z,101309.12
2018-12-19T20:18:13.785Z,101300.42
2018-12-19T20:20:44.280Z,101308.34
2018-12-19T20:23:14.912Z,101303.44
2018-12-19T20:26:08.355Z,101298.78
2018-12-19T20:29:06.862Z,101299.22
2018-12-19T20:31:43.823Z,101299.42
2018-12-19T20:34:15.233Z,101296.93
2018-12-19T20:37:04.520Z,101301.53
2018-12-19T20:39:37.301Z,101306.80
2018-12-19T20:42:07.848Z,101308.20
2018-12-19T20:44:38.477Z,101309.33
2018-12-19T20:47:09.037Z,101308.30
2018-12-19T20:49:39.537Z,101312.52
2018-12-19T20:52:10.406Z,101309.38
2018-12-19T20:54:41.354Z,101312.70
2018-12-19T20:57:11.992Z,101307.30
2018-12-19T20:59:42.663Z,101310.67
2018-12-19T21:02:13.421Z,101316.48
2018-12-19T21:04:44.118Z,101308.42
2018-12-19T21:07:14.888Z,101303.78
2018-12-19T21:09:45.525Z,101310.33
2018-12-19T21:12:16.065Z,101298.44
2018-12-19T21:14:47.673Z,101295.56
2018-12-19T21:17:23.537Z,101301.28
2018-12-19T21:19:54.035Z,101297.45
2018-12-19T21:22:24.571Z,101296.11
2018-12-19T21:24:55.044Z,101299.16
2018-12-19T21:27:25.517Z,101293.92
2018-12-19T21:30:03.072Z,101291.46
2018-12-19T21:32:40.298Z,101290.05
2018-12-19T21:35:11.046Z,101291.90
2018-12-19T21:37:41.654Z,101298.22
2018-12-19T21:40:12.395Z,101300.12
2018-12-19T21:42:43.239Z,101303.61
2018-12-19T21:45:16.903Z,101304.81
2018-12-19T21:47:47.587Z,101301.92
2018-12-19T21:50:18.085Z,101303.09
2018-12-19T21:52:48.722Z,101307.73
2018-12-19T21:55:21.951Z,101308.04
2018-12-19T21:57:52.738Z,101309.42
2018-12-19T22:03:12.730Z,101303.44
2018-12-19T22:05:43.437Z,101305.06
2018-12-19T22:08:14.077Z,101301.66
2018-12-19T22:10:45.634Z,101304.89
2018-12-19T22:13:17.170Z,101309.36
2018-12-19T22:15:48.323Z,101301.80
2018-12-19T22:18:24.367Z,101303.34
2018-12-19T22:20:56.430Z,101301.41
2018-12-19T22:23:27.226Z,101299.03
2018-12-19T22:25:59.027Z,101293.87
2018-12-19T22:28:29.639Z,101296.16
2018-12-19T22:31:00.084Z,101288.66
2018-12-19T22:33:30.563Z,101294.56
2018-12-19T22:36:01.055Z,101293.39
2018-12-19T22:38:31.572Z,101289.56
2018-12-19T22:41:02.417Z,101297.19
2018-12-19T22:43:32.964Z,101297.92
2018-12-19T22:46:03.636Z,101289.40
2018-12-19T22:48:34.165Z,101290.55
2018-12-19T22:51:04.863Z,101293.23
2018-12-19T22:53:35.511Z,101291.81
2018-12-19T22:56:06.076Z,101290.69
2018-12-19T22:58:36.803Z,101288.50
2018-12-19T23:02:14.571Z,101290.55
2018-12-19T23:04:45.124Z,101284.61
2018-12-19T23:07:15.603Z,101285.01
2018-12-19T23:09:47.283Z,101291.94
2018-12-19T23:12:17.822Z,101291.25
2018-12-19T23:14:48.558Z,101291.67
2018-12-19T23:17:29.866Z,101296.59
2018-12-19T23:20:06.668Z,101295.64
2018-12-19T23:22:42.821Z,101295.98
2018-12-19T23:25:18.991Z,101287.59
2018-12-19T23:27:51.657Z,101288.70
2018-12-19T23:30:23.148Z,101288.83
2018-12-19T23:32:53.731Z,101288.34
2018-12-19T23:35:24.458Z,101277.82
2018-12-19T23:37:55.059Z,101280.27
2018-12-19T23:40:25.707Z,101275.02
2018-12-19T23:42:57.441Z,101276.35
2018-12-19T23:45:28.006Z,101269.67
2018-12-19T23:47:59.588Z,101267.91
2018-12-19T23:50:30.106Z,101259.61
2018-12-19T23:53:00.639Z,101261.29
2018-12-19T23:55:31.189Z,101252.25
2018-12-19T23:58:01.745Z,101254.83
